createdAt,value
2019-05-01T00:02:36.985Z,97712.01
2019-05-01T00:07:58.713Z,97714.55
2019-05-01T00:13:20.149Z,97721.77
2019-05-01T00:18:41.952Z,97725.42
2019-05-01T00:24:03.532Z,97727.64
2019-05-01T00:29:25.174Z,97732.09
2019-05-01T00:34:47.063Z,97722.77
2019-05-01T00:40:08.904Z,97723.00
2019-05-01T00:45:30.107Z,97730.61
2019-05-01T00:50:52.171Z,97731.67
2019-05-01T00:56:26.038Z,97736.13
2019-05-01T01:02:19.567Z,97732.10
2019-05-01T01:07:41.273Z,97725.56
2019-05-01T01:13:03.019Z,97731.05
2019-05-01T01:18:24.569Z,97717.83
2019-05-01T01:23:46.340Z,97727.36
2019-05-01T01:29:07.769Z,97715.97
2019-05-01T01:34:29.267Z,97712.20
2019-05-01T01:39:51.390Z,97708.38
2019-05-01T01:45:21.975Z,97711.88
2019-05-01T01:50:44.890Z,97708.68
2019-05-01T01:56:06.438Z,97707.23
2019-05-01T02:01:47.637Z,97703.52
2019-05-01T02:07:10.039Z,97700.47
2019-05-01T02:12:31.715Z,97699.73
2019-05-01T02:17:53.215Z,97692.14
2019-05-01T02:23:15.018Z,97689.42
2019-05-01T02:29:01.960Z,97699.37
2019-05-01T02:34:24.788Z,97691.80
2019-05-01T02:39:48.333Z,97685.73
2019-05-01T02:45:10.441Z,97687.61
2019-05-01T02:50:35.115Z,97691.80
2019-05-01T02:56:15.892Z,97689.06
2019-05-01T03:01:47.312Z,97687.12
2019-05-01T03:07:04.747Z,97686.06
2019-05-01T03:12:29.773Z,97673.60
2019-05-01T03:18:12.253Z,97683.48
2019-05-01T03:23:40.305Z,97691.37
2019-05-01T03:29:01.953Z,97690.34
2019-05-01T03:34:23.685Z,97692.89
2019-05-01T03:39:45.887Z,97688.80
2019-05-01T03:45:07.926Z,97694.52
2019-05-01T03:50:29.503Z,97690.30
2019-05-01T03:55:51.109Z,97703.96
2019-05-01T04:01:25.559Z,97701.50
2019-05-01T04:06:47.593Z,97712.42
2019-05-01T04:12:09.148Z,97707.13
2019-05-01T04:17:45.963Z,97710.81
2019-05-01T04:23:07.737Z,97709.57
2019-05-01T04:28:43.058Z,97705.13
2019-05-01T04:34:09.959Z,97703.61
2019-05-01T04:39:32.807Z,97718.91
2019-05-01T04:44:54.735Z,97709.63
2019-05-01T04:50:16.800Z,97708.44
2019-05-01T04:55:39.112Z,97704.83
2019-05-01T05:01:03.087Z,97690.13
2019-05-01T05:06:24.678Z,97691.66
2019-05-01T05:11:51.894Z,97686.35
2019-05-01T05:17:17.035Z,97690.27
2019-05-01T05:22:38.521Z,97686.38
2019-05-01T05:28:00.591Z,97685.50
2019-05-01T05:33:23.980Z,97701.11
2019-05-01T05:38:51.936Z,97704.31
2019-05-01T05:44:14.009Z,97692.27
2019-05-01T05:49:36.289Z,97693.91
2019-05-01T05:55:09.561Z,97699.44
2019-05-01T06:00:49.858Z,97694.95
2019-05-01T06:06:33.905Z,97685.72
2019-05-01T06:12:12.561Z,97684.06
2019-05-01T06:18:04.096Z,97687.06
2019-05-01T06:23:34.161Z,97680.73
2019-05-01T06:29:00.592Z,97678.89
2019-05-01T06:34:23.839Z,97690.17
2019-05-01T06:39:47.885Z,97692.65
2019-05-01T06:45:13.019Z,97698.27
2019-05-01T06:50:52.146Z,97703.95
2019-05-01T06:56:14.021Z,97701.23
2019-05-01T07:01:36.821Z,97702.84
2019-05-01T07:07:01.898Z,97698.22
2019-05-01T07:12:28.311Z,97696.29
2019-05-01T07:17:50.693Z,97699.82
2019-05-01T07:23:17.470Z,97695.73
2019-05-01T07:28:37.958Z,97698.34
2019-05-01T07:33:59.627Z,97699.13
2019-05-01T07:39:21.471Z,97690.05
2019-05-01T07:44:45.468Z,97681.01
2019-05-01T07:50:09.028Z,97687.20
2019-05-01T07:55:36.519Z,97691.22
2019-05-01T08:01:20.156Z,97694.50
2019-05-01T08:06:42.169Z,97666.88
2019-05-01T08:12:04.512Z,97666.16
2019-05-01T08:17:28.214Z,97670.66
2019-05-01T08:22:50.004Z,97676.05
2019-05-01T08:28:33.996Z,97658.75
2019-05-01T08:34:07.009Z,97647.37
2019-05-01T08:39:28.527Z,97642.27
2019-05-01T08:45:12.569Z,97642.27
2019-05-01T08:50:34.719Z,97637.44
2019-05-01T08:55:56.470Z,97631.46
2019-05-01T09:01:18.360Z,97632.73
2019-05-01T09:06:43.929Z,97622.91
2019-05-01T09:12:06.785Z,97622.91
2019-05-01T09:17:27.245Z,97623.91
2019-05-01T09:22:49.082Z,97623.42
2019-05-01T09:28:17.418Z,97630.72
2019-05-01T09:33:39.052Z,97629.48
2019-05-01T09:39:01.118Z,97631.53
2019-05-01T09:44:22.914Z,97636.73
2019-05-01T09:49:48.844Z,97630.60
2019-05-01T09:55:17.933Z,97620.79
2019-05-01T10:00:39.002Z,97626.48
2019-05-01T10:06:02.748Z,97621.30
2019-05-01T10:11:24.584Z,97617.61
2019-05-01T10:16:50.032Z,97610.35
2019-05-01T10:22:11.777Z,97600.25
2019-05-01T10:27:37.285Z,97595.16
2019-05-01T10:33:04.186Z,97595.39
2019-05-01T10:38:25.748Z,97586.09
2019-05-01T10:43:47.428Z,97574.95
2019-05-01T10:49:08.964Z,97570.36
2019-05-01T10:54:30.486Z,97577.58
2019-05-01T10:59:52.271Z,97575.97
2019-05-01T11:05:14.493Z,97571.63
2019-05-01T11:10:36.070Z,97559.55
2019-05-01T11:15:57.806Z,97580.51
2019-05-01T11:21:19.960Z,97569.58
2019-05-01T11:26:42.026Z,97573.95
2019-05-01T11:32:26.289Z,97560.63
2019-05-01T11:38:07.711Z,97553.49
2019-05-01T11:43:29.534Z,97567.10
2019-05-01T11:48:51.178Z,97559.66
2019-05-01T11:54:12.847Z,97570.63
2019-05-01T11:59:34.758Z,97559.03
2019-05-01T12:04:56.336Z,97549.55
2019-05-01T12:10:18.483Z,97551.70
2019-05-01T12:15:42.222Z,97564.52
2019-05-01T12:21:03.914Z,97542.48
2019-05-01T12:26:25.676Z,97526.20
2019-05-01T12:31:47.234Z,97527.67
2019-05-01T12:37:31.556Z,97515.30
2019-05-01T12:42:55.350Z,97513.79
2019-05-01T12:48:16.963Z,97502.24
2019-05-01T12:54:05.680Z,97494.80
2019-05-01T12:59:27.310Z,97482.20
2019-05-01T13:04:49.219Z,97478.19
2019-05-01T13:10:11.855Z,97462.52
2019-05-01T13:15:33.485Z,97462.92
2019-05-01T13:20:55.068Z,97458.19
2019-05-01T13:26:24.896Z,97460.47
2019-05-01T13:31:53.252Z,97467.98
2019-05-01T13:37:14.847Z,97457.37
2019-05-01T13:42:37.158Z,97448.05
2019-05-01T13:47:59.094Z,97460.41
2019-05-01T13:53:20.917Z,97459.17
2019-05-01T13:58:42.172Z,97448.41
2019-05-01T14:04:03.718Z,97453.34
2019-05-01T14:09:29.185Z,97463.03
2019-05-01T14:14:51.215Z,97477.95
2019-05-01T14:20:38.837Z,97485.59
2019-05-01T14:26:03.491Z,97491.47
2019-05-01T14:31:25.476Z,97476.56
2019-05-01T14:36:47.361Z,97473.44
2019-05-01T14:42:09.508Z,97479.22
2019-05-01T14:47:31.153Z,97475.20
2019-05-01T14:52:52.820Z,97468.22
2019-05-01T14:58:14.375Z,97492.31
2019-05-01T15:03:35.934Z,97483.38
2019-05-01T15:08:57.591Z,97493.31
2019-05-01T15:14:37.701Z,97477.79
2019-05-01T15:20:02.610Z,97478.57
2019-05-01T15:25:24.454Z,97472.09
2019-05-01T15:30:46.373Z,97482.31
2019-05-01T15:36:08.520Z,97472.50
2019-05-01T15:41:52.733Z,97468.79
2019-05-01T15:47:14.449Z,97474.29
2019-05-01T15:52:36.139Z,97484.33
2019-05-01T15:57:57.556Z,97487.00
2019-05-01T16:03:19.452Z,97487.94
2019-05-01T16:08:41.337Z,97497.16
2019-05-01T16:14:03.703Z,97496.44
2019-05-01T16:19:25.568Z,97494.45
2019-05-01T16:24:47.219Z,97497.84
2019-05-01T16:30:09.348Z,97499.75
2019-05-01T16:35:31.517Z,97498.77
2019-05-01T16:41:12.885Z,97523.36
2019-05-01T16:46:35.126Z,97523.36
2019-05-01T16:51:56.646Z,97512.22
2019-05-01T16:57:18.765Z,97512.22
2019-05-01T17:03:01.286Z,97514.48
2019-05-01T17:08:48.845Z,97514.48
2019-05-01T17:14:11.587Z,97521.02
2019-05-01T17:19:32.915Z,97525.04
2019-05-01T17:24:54.899Z,97530.00
2019-05-01T17:30:20.611Z,97538.03
2019-05-01T17:35:43.251Z,97549.66
2019-05-01T17:41:05.172Z,97549.66
2019-05-01T17:46:26.770Z,97544.87
2019-05-01T17:51:48.392Z,97537.86
2019-05-01T17:57:10.589Z,97558.02
2019-05-01T18:02:54.333Z,97519.70
2019-05-01T18:08:17.249Z,97571.23
2019-05-01T18:13:39.068Z,97564.23
2019-05-01T18:19:00.490Z,97577.98
2019-05-01T18:24:41.799Z,97577.98
2019-05-01T18:30:07.303Z,97591.62
2019-05-01T18:35:29.250Z,97601.14
2019-05-01T18:40:58.283Z,97590.52
2019-05-01T18:46:20.363Z,97594.47
2019-05-01T18:51:42.500Z,97594.96
2019-05-01T18:57:04.334Z,97603.81
2019-05-01T19:02:26.353Z,97618.94
2019-05-01T19:07:48.374Z,97607.80
2019-05-01T19:13:11.433Z,97621.41
2019-05-01T19:18:33.623Z,97623.90
2019-05-01T19:24:00.602Z,97619.98
2019-05-01T19:29:19.462Z,97616.92
2019-05-01T19:34:41.592Z,97609.94
2019-05-01T19:40:03.948Z,97621.13
2019-05-01T19:45:25.681Z,97626.81
2019-05-01T19:50:48.431Z,97617.37
2019-05-01T19:56:11.330Z,97622.28
2019-05-01T20:01:33.062Z,97634.52
2019-05-01T20:06:54.591Z,97622.53
2019-05-01T20:12:15.935Z,97620.79
2019-05-01T20:17:37.526Z,97584.98
2019-05-01T20:22:59.423Z,97628.38
2019-05-01T20:28:22.441Z,97631.75
2019-05-01T20:33:44.693Z,97630.73
2019-05-01T20:39:07.085Z,97641.24
2019-05-01T20:44:29.193Z,97632.84
2019-05-01T20:49:50.493Z,97642.57
2019-05-01T20:55:12.859Z,97652.59
2019-05-01T21:00:34.682Z,97642.75
2019-05-01T21:06:18.475Z,97645.69
2019-05-01T21:11:47.395Z,97666.65
2019-05-01T21:17:09.533Z,97645.38
2019-05-01T21:22:30.302Z,97664.45
2019-05-01T21:27:54.092Z,97686.16
2019-05-01T21:33:16.120Z,97683.61
2019-05-01T21:38:37.532Z,97682.27
2019-05-01T21:43:59.282Z,97690.27
2019-05-01T21:49:22.832Z,97695.19
2019-05-01T21:54:44.594Z,97698.77
2019-05-01T22:00:08.016Z,97683.41
2019-05-01T22:05:29.759Z,97682.40
2019-05-01T22:10:52.382Z,97697.04
2019-05-01T22:16:22.382Z,97687.41
2019-05-01T22:22:11.717Z,97696.72
2019-05-01T22:27:37.596Z,97697.04
2019-05-01T22:32:59.565Z,97706.02
2019-05-01T22:38:21.349Z,97700.86
2019-05-01T22:43:43.192Z,97690.06
2019-05-01T22:49:05.306Z,97691.88
2019-05-01T22:54:26.994Z,97692.08
2019-05-01T22:59:48.879Z,97691.39
2019-05-01T23:05:10.743Z,97693.07
2019-05-01T23:10:33.327Z,97690.21
2019-05-01T23:15:57.977Z,97704.34
2019-05-01T23:21:19.642Z,97699.37
2019-05-01T23:26:41.367Z,97698.03
2019-05-01T23:32:03.329Z,97707.97
2019-05-01T23:37:26.105Z,97715.59
2019-05-01T23:42:52.603Z,97726.43
2019-05-01T23:48:12.344Z,97720.46
2019-05-01T23:53:33.980Z,97732.81
2019-05-01T23:58:55.388Z,97724.47
